Time,TemperatureF,DewpointF,PressureIn,WindDirection,WindDirectionDegrees,WindSpeedMPH,WindSpeedGustMPH,Humidity,HourlyPrecipIn,Conditions,Clouds,dailyrainin,SoftwareType,DateUTC
2013-02-23 00:13:00,38.1,37.0,30.21,ESE,123,0.0,1.0,97,0.00,,,0.00,weatherlink.com 1.10,2013-02-23 05:13:00,
2013-02-23 00:28:00,38.2,38.0,30.19,ESE,123,1.0,2.0,97,0.00,,,0.00,weatherlink.com 1.10,2013-02-23 05:28:00,
2013-02-23 00:43:00,38.3,38.0,30.19,SE,125,0.0,1.0,97,0.00,,,0.00,weatherlink.com 1.10,2013-02-23 05:43:00,
2013-02-23 00:58:00,38.4,38.0,30.19,SE,125,0.0,0.0,97,0.00,,,0.00,weatherlink.com 1.10,2013-02-23 05:58:00,
2013-02-23 01:13:00,38.3,38.0,30.18,SE,125,0.0,0.0,97,0.00,,,0.00,weatherlink.com 1.10,2013-02-23 06:13:00,
2013-02-23 01:28:00,38.3,38.0,30.17,SE,125,0.0,1.0,97,0.00,,,0.00,weatherlink.com 1.10,2013-02-23 06:28:00,
2013-02-23 01:43:00,38.6,38.0,30.15,SE,144,0.0,4.0,97,0.02,,,0.02,weatherlink.com 1.10,2013-02-23 06:43:00,
2013-02-23 01:58:00,38.9,38.0,30.15,SW,214,3.0,3.0,98,0.03,,,0.03,weatherlink.com 1.10,2013-02-23 06:58:00,
2013-02-23 02:13:00,39.0,39.0,30.15,WSW,244,2.0,3.0,98,0.04,,,0.04,weatherlink.com 1.10,2013-02-23 07:13:00,
2013-02-23 02:28:00,39.8,39.0,30.15,South,186,0.0,2.0,98,0.05,,,0.05,weatherlink.com 1.10,2013-02-23 07:28:00,
2013-02-23 02:43:00,39.6,39.0,30.16,South,186,0.0,2.0,98,0.05,,,0.07,weatherlink.com 1.10,2013-02-23 07:43:00,
2013-02-23 02:58:00,39.2,39.0,30.16,South,186,0.0,0.0,98,0.06,,,0.09,weatherlink.com 1.10,2013-02-23 07:58:00,
2013-02-23 03:13:00,39.0,38.0,30.16,South,186,0.0,0.0,97,0.07,,,0.11,weatherlink.com 1.10,2013-02-23 08:13:00,
2013-02-23 03:28:00,39.0,39.0,30.14,South,186,0.0,1.0,98,0.07,,,0.12,weatherlink.com 1.10,2013-02-23 08:28:00,
2013-02-23 03:43:00,38.9,38.0,30.11,South,186,0.0,0.0,98,0.05,,,0.12,weatherlink.com 1.10,2013-02-23 08:43:00,
2013-02-23 03:58:00,38.9,38.0,30.12,South,186,0.0,0.0,98,0.04,,,0.13,weatherlink.com 1.10,2013-02-23 08:58:00,
2013-02-23 04:13:00,39.2,39.0,30.12,South,184,0.0,1.0,98,0.02,,,0.13,weatherlink.com 1.10,2013-02-23 09:13:00,
2013-02-23 04:28:00,39.3,39.0,30.11,South,184,0.0,0.0,98,0.02,,,0.14,weatherlink.com 1.10,2013-02-23 09:28:00,
2013-02-23 04:43:00,39.3,39.0,30.10,South,184,0.0,1.0,98,0.03,,,0.15,weatherlink.com 1.10,2013-02-23 09:43:00,
2013-02-23 04:58:00,39.3,39.0,30.07,South,184,0.0,3.0,98,0.02,,,0.15,weatherlink.com 1.10,2013-02-23 09:58:00,
2013-02-23 05:13:00,39.1,39.0,30.06,South,184,0.0,1.0,98,0.02,,,0.15,weatherlink.com 1.10,2013-02-23 10:13:00,
2013-02-23 05:28:00,39.5,39.0,30.07,South,184,1.0,2.0,98,0.01,,,0.15,weatherlink.com 1.10,2013-02-23 10:28:00,
2013-02-23 05:43:00,39.4,39.0,30.08,SW,221,0.0,1.0,98,0.01,,,0.16,weatherlink.com 1.10,2013-02-23 10:43:00,
2013-02-23 05:58:00,39.4,39.0,30.08,SW,221,0.0,0.0,98,0.03,,,0.18,weatherlink.com 1.10,2013-02-23 10:58:00,
2013-02-23 06:13:00,39.4,39.0,30.07,SW,221,0.0,0.0,98,0.04,,,0.19,weatherlink.com 1.10,2013-02-23 11:13:00,
2013-02-23 06:28:00,39.3,39.0,30.07,SW,221,0.0,2.0,98,0.05,,,0.20,weatherlink.com 1.10,2013-02-23 11:28:00,
2013-02-23 06:43:00,39.9,39.0,30.07,SW,221,0.0,1.0,98,0.05,,,0.21,weatherlink.com 1.10,2013-02-23 11:43:00,
2013-02-23 06:58:00,39.8,39.0,30.07,SW,221,0.0,0.0,98,0.03,,,0.21,weatherlink.com 1.10,2013-02-23 11:58:00,
2013-02-23 07:13:00,40.0,40.0,30.07,SW,221,0.0,1.0,98,0.02,,,0.22,weatherlink.com 1.10,2013-02-23 12:13:00,
2013-02-23 07:28:00,39.9,39.0,30.06,SSW,199,2.0,3.0,98,0.02,,,0.22,weatherlink.com 1.10,2013-02-23 12:28:00,
2013-02-23 07:43:00,39.7,39.0,30.07,WSW,248,1.0,3.0,98,0.01,,,0.22,weatherlink.com 1.10,2013-02-23 12:43:00,
2013-02-23 07:58:00,39.9,39.0,30.06,SW,227,1.0,4.0,98,0.01,,,0.22,weatherlink.com 1.10,2013-02-23 12:58:00,
2013-02-23 08:13:00,40.2,40.0,30.06,SSW,213,0.0,2.0,98,0.00,,,0.22,weatherlink.com 1.10,2013-02-23 13:13:00,
2013-02-23 08:28:00,40.5,40.0,30.07,SSW,213,0.0,1.0,98,0.00,,,0.22,weatherlink.com 1.10,2013-02-23 13:28:00,
2013-02-23 08:43:00,40.7,40.0,30.08,SSW,213,0.0,1.0,98,0.01,,,0.23,weatherlink.com 1.10,2013-02-23 13:43:00,
2013-02-23 08:58:00,41.0,41.0,30.08,SSW,207,1.0,2.0,99,0.01,,,0.23,weatherlink.com 1.10,2013-02-23 13:58:00,
2013-02-23 09:13:00,41.2,41.0,30.08,SSW,207,0.0,1.0,98,0.01,,,0.23,weatherlink.com 1.10,2013-02-23 14:13:00,
2013-02-23 09:28:00,41.4,41.0,30.08,SSW,207,0.0,1.0,98,0.01,,,0.23,weatherlink.com 1.10,2013-02-23 14:28:00,
2013-02-23 09:43:00,41.8,42.0,30.07,SSW,207,0.0,0.0,99,0.00,,,0.23,weatherlink.com 1.10,2013-02-23 14:43:00,
2013-02-23 09:58:00,42.3,42.0,30.06,SSW,207,0.0,0.0,99,0.00,,,0.23,weatherlink.com 1.10,2013-02-23 14:58:00,
2013-02-23 10:13:00,43.4,43.0,30.06,SSW,207,0.0,1.0,99,0.00,,,0.23,weatherlink.com 1.10,2013-02-23 15:13:00,
2013-02-23 10:29:00,44.4,44.0,30.06,SSW,207,0.0,2.0,99,0.00,,,0.23,weatherlink.com 1.10,2013-02-23 15:29:00,
2013-02-23 10:44:00,44.9,45.0,30.05,SSW,207,0.0,1.0,99,0.00,,,0.23,weatherlink.com 1.10,2013-02-23 15:44:00,
2013-02-23 10:59:00,45.2,45.0,30.05,WSW,244,0.0,3.0,99,0.00,,,0.23,weatherlink.com 1.10,2013-02-23 15:59:00,
2013-02-23 11:14:00,45.6,45.0,30.05,WSW,244,0.0,0.0,99,0.00,,,0.23,weatherlink.com 1.10,2013-02-23 16:14:00,
2013-02-23 11:29:00,46.2,46.0,30.06,WSW,244,0.0,0.0,99,0.01,,,0.24,weatherlink.com 1.10,2013-02-23 16:29:00,
2013-02-23 11:44:00,46.5,46.0,30.06,WSW,244,0.0,3.0,99,0.01,,,0.24,weatherlink.com 1.10,2013-02-23 16:44:00,
2013-02-23 11:59:00,46.7,46.0,30.05,WSW,244,0.0,2.0,98,0.01,,,0.24,weatherlink.com 1.10,2013-02-23 16:59:00,
2013-02-23 12:14:00,47.2,47.0,30.05,WSW,244,0.0,2.0,98,0.01,,,0.24,weatherlink.com 1.10,2013-02-23 17:14:00,
2013-02-23 12:29:00,47.9,47.0,30.03,WSW,244,0.0,1.0,97,0.00,,,0.24,weatherlink.com 1.10,2013-02-23 17:29:00,
2013-02-23 12:44:00,48.6,48.0,30.02,WSW,244,0.0,1.0,97,0.00,,,0.24,weatherlink.com 1.10,2013-02-23 17:44:00,
2013-02-23 12:59:00,49.4,48.0,30.01,WSW,244,0.0,1.0,96,0.00,,,0.24,weatherlink.com 1.10,2013-02-23 17:59:00,
2013-02-23 13:14:00,49.9,48.0,30.01,WSW,247,1.0,2.0,94,0.00,,,0.24,weatherlink.com 1.10,2013-02-23 18:14:00,
2013-02-23 13:29:00,50.6,49.0,30.00,West,264,0.0,4.0,93,0.00,,,0.24,weatherlink.com 1.10,2013-02-23 18:29:00,
2013-02-23 13:44:00,51.4,49.0,30.00,West,265,0.0,3.0,91,0.00,,,0.24,weatherlink.com 1.10,2013-02-23 18:44:00,
2013-02-23 13:59:00,52.0,49.0,30.00,West,266,1.0,4.0,89,0.00,,,0.24,weatherlink.com 1.10,2013-02-23 18:59:00,
2013-02-23 14:14:00,52.4,49.0,29.99,West,266,0.0,3.0,89,0.00,,,0.24,weatherlink.com 1.10,2013-02-23 19:14:00,
2013-02-23 14:29:00,52.5,49.0,29.99,West,266,0.0,2.0,89,0.00,,,0.24,weatherlink.com 1.10,2013-02-23 19:29:00,
2013-02-23 14:44:00,52.4,49.0,29.99,West,266,0.0,2.0,89,0.00,,,0.24,weatherlink.com 1.10,2013-02-23 19:44:00,
2013-02-23 14:59:00,52.3,50.0,29.99,West,267,0.0,4.0,90,0.00,,,0.24,weatherlink.com 1.10,2013-02-23 19:59:00,
2013-02-23 15:14:00,52.5,50.0,29.98,West,267,1.0,2.0,90,0.00,,,0.24,weatherlink.com 1.10,2013-02-23 20:14:00,
2013-02-23 15:29:00,53.2,50.0,29.98,West,267,0.0,1.0,89,0.00,,,0.24,weatherlink.com 1.10,2013-02-23 20:29:00,
2013-02-23 15:44:00,53.4,50.0,29.98,West,267,0.0,1.0,89,0.00,,,0.24,weatherlink.com 1.10,2013-02-23 20:44:00,
2013-02-23 15:59:00,53.3,50.0,29.98,West,267,0.0,2.0,89,0.00,,,0.24,weatherlink.com 1.10,2013-02-23 20:59:00,
2013-02-23 16:14:00,53.1,50.0,29.98,West,267,0.0,1.0,89,0.00,,,0.24,weatherlink.com 1.10,2013-02-23 21:14:00,
2013-02-23 16:29:00,52.8,49.0,29.98,West,267,0.0,0.0,88,0.00,,,0.24,weatherlink.com 1.10,2013-02-23 21:29:00,
2013-02-23 16:44:00,52.7,50.0,29.97,West,267,1.0,1.0,90,0.00,,,0.24,weatherlink.com 1.10,2013-02-23 21:44:00,
2013-02-23 16:59:00,52.7,50.0,29.96,West,267,0.0,0.0,90,0.00,,,0.24,weatherlink.com 1.10,2013-02-23 21:59:00,
2013-02-23 17:14:00,52.5,49.0,29.96,West,267,0.0,0.0,89,0.00,,,0.24,weatherlink.com 1.10,2013-02-23 22:14:00,
2013-02-23 17:29:00,52.3,50.0,29.96,West,267,0.0,1.0,90,0.00,,,0.24,weatherlink.com 1.10,2013-02-23 22:29:00,
2013-02-23 17:44:00,52.0,50.0,29.95,West,267,0.0,0.0,91,0.00,,,0.24,weatherlink.com 1.10,2013-02-23 22:44:00,
2013-02-23 17:59:00,51.8,49.0,29.95,West,267,0.0,0.0,91,0.00,,,0.24,weatherlink.com 1.10,2013-02-23 22:59:00,
2013-02-23 18:14:00,51.4,49.0,29.95,West,267,0.0,0.0,91,0.00,,,0.24,weatherlink.com 1.10,2013-02-23 23:14:00,
2013-02-23 18:30:00,51.2,49.0,29.93,West,267,0.0,0.0,92,0.00,,,0.24,weatherlink.com 1.10,2013-02-23 23:30:00,
2013-02-23 18:45:00,51.0,49.0,29.94,West,267,0.0,1.0,92,0.00,,,0.24,weatherlink.com 1.10,2013-02-23 23:45:00,
2013-02-23 19:00:00,50.9,49.0,29.95,West,267,0.0,0.0,92,0.00,,,0.24,weatherlink.com 1.10,2013-02-24 00:00:00,
2013-02-23 19:15:00,50.6,49.0,29.94,West,267,0.0,1.0,93,0.00,,,0.24,weatherlink.com 1.10,2013-02-24 00:15:00,
2013-02-23 19:30:00,50.4,49.0,29.94,West,267,1.0,1.0,93,0.00,,,0.24,weatherlink.com 1.10,2013-02-24 00:30:00,
2013-02-23 19:45:00,50.1,48.0,29.94,West,267,0.0,2.0,93,0.00,,,0.24,weatherlink.com 1.10,2013-02-24 00:45:00,
2013-02-23 20:00:00,49.8,48.0,29.95,WSW,248,1.0,2.0,94,0.00,,,0.24,weatherlink.com 1.10,2013-02-24 01:00:00,
2013-02-23 20:15:00,49.7,48.0,29.94,WSW,248,0.0,1.0,94,0.00,,,0.24,weatherlink.com 1.10,2013-02-24 01:15:00,
2013-02-23 20:30:00,49.4,48.0,29.93,WSW,248,0.0,0.0,94,0.00,,,0.24,weatherlink.com 1.10,2013-02-24 01:30:00,
2013-02-23 20:45:00,49.1,48.0,29.95,WSW,248,0.0,2.0,95,0.00,,,0.24,weatherlink.com 1.10,2013-02-24 01:45:00,
2013-02-23 21:00:00,49.0,48.0,29.95,WSW,248,0.0,1.0,95,0.00,,,0.24,weatherlink.com 1.10,2013-02-24 02:00:00,
2013-02-23 21:15:00,48.8,48.0,29.95,WSW,248,0.0,0.0,95,0.00,,,0.24,weatherlink.com 1.10,2013-02-24 02:15:00,
2013-02-23 21:30:00,48.4,47.0,29.94,WSW,248,0.0,0.0,95,0.00,,,0.24,weatherlink.com 1.10,2013-02-24 02:30:00,
2013-02-23 21:45:00,48.1,47.0,29.94,WSW,248,0.0,0.0,95,0.00,,,0.24,weatherlink.com 1.10,2013-02-24 02:45:00,
2013-02-23 22:00:00,47.9,47.0,29.95,WSW,248,0.0,0.0,96,0.00,,,0.24,weatherlink.com 1.10,2013-02-24 03:00:00,
2013-02-23 22:15:00,47.5,47.0,29.94,WSW,248,0.0,1.0,96,0.00,,,0.24,weatherlink.com 1.10,2013-02-24 03:15:00,
2013-02-23 22:30:00,47.1,46.0,29.94,WSW,248,0.0,0.0,96,0.00,,,0.24,weatherlink.com 1.10,2013-02-24 03:30:00,
2013-02-23 22:45:00,46.7,46.0,29.94,WSW,244,0.0,3.0,96,0.00,,,0.24,weatherlink.com 1.10,2013-02-24 03:45:00,
2013-02-23 23:00:00,46.0,45.0,29.94,WSW,237,0.0,3.0,96,0.00,,,0.24,weatherlink.com 1.10,2013-02-24 04:00:00,
2013-02-23 23:15:00,45.4,42.0,29.95,South,169,0.0,3.0,89,0.00,,,0.24,weatherlink.com 1.10,2013-02-24 04:15:00,
2013-02-23 23:30:00,45.8,42.0,29.95,WSW,257,1.0,4.0,87,0.00,,,0.24,weatherlink.com 1.10,2013-02-24 04:30:00,
2013-02-23 23:45:00,47.9,39.0,29.95,West,260,3.0,11.0,72,0.00,,,0.24,weatherlink.com 1.10,2013-02-24 04:45:00,